Lewistown, MT

3:42 PM MST on December 06, 2016 (GMT -0700)
3rd Ave S Lewistown | | Change Station
Active Advisory: Wind Chill Advisory

Elev 3927 ft 47.06 °N, 109.42 °W | Updated 17 seconds ago

Light Snow
Light Snow
2.7 °F
Feels Like 3 °F
N
0.0
Wind Variable Wind from SSW
Gusts 8.0 mph

Today
High -- | Low -- °F
--% Chance of Precip.
Yesterday
High -- | Low -- °F
Precip. -- in
Pressure 30.33 in
Visibility 5.0 miles
Clouds Overcast 1300 ft
Windchill 3 °F
Dew Point -2 °F
Humidity 81%
Rainfall 0.00 in
Snow Depth Not available.
7:49 AM 4:28 PM
Waxing Crescent, 46% visible
METAR KLWT 062154Z AUTO 28010KT 5SM -SN OVC013 M17/M20 A3007 RMK AO2 SNB2056 SLP270 P0000 T11721200
Pressure 30.33 in
Visibility 5.0 miles
Clouds Overcast 1300 ft
Windchill 3 °F
Dew Point -2 °F
Humidity 81%
Rainfall 0.00 in
Snow Depth Not available.
7:49 AM 4:28 PM
Waxing Crescent, 46% visible
METAR KLWT 062154Z AUTO 28010KT 5SM -SN OVC013 M17/M20 A3007 RMK AO2 SNB2056 SLP270 P0000 T11721200

10-Day Weather Forecast

Almanac

Astronomy

Dec. 06, 2016 Rise Set
Actual Time
Civil Twilight
Nautical Twilight
Astronomical Twilight
Moon
Length of Visible Light
Length of Day
Tomorrow will be .
, % of the Moon is Illuminated

Today's Extremes

State Highs State Lows

Community

WunderPhotos

Upload Photos

1,956,042 photos uploaded!

WunderBlog® & News

Nearby

Air Quality

  Air Quality AQ Index Pollutant
Not available.

Snow Depth

Station Depth Elevation

Earthquake Activity

City Distance Mag. Time & Date
Minimum magnitude displayed is 2.5.

Coastal Water Temperatures

Place Temperature

Stations

Nearby Weather Stations

Station Location Temp. Windchill Dew Point Humidity Wind Precip. Elev Updated Type
                   

Watches & Warnings

Wind Chill Advisory
Issued: 2:34 PM MST Dec. 6, 2016 – National Weather Service

... Wind Chill Advisory in effect
from 8 PM this evening to noon MST Wednesday...

The National Weather Service in Great Falls has issued a Wind
Chill Advisory... which is in effect from 8 PM this evening to
noon MST Wednesday.

* Locations... Havre... Great Falls... Kings Hill Pass... Big
Sandy... Fort Benton... Flesher Pass... Helena... Lincoln...
MacDonald Pass... Rogers Pass... Chinook... Choteau...
Fairfield... Stanford... Lewistown... Lewistown Divide...
Boulder... Boulder Hill... Elk Park Pass... Homestake pass...
Whitehall... Townsend... White Sulphur Springs.

* Timing... cold temperatures and light winds will create wind
chill values around 20 below zero tonight through Wednesday
morning.

* Winds... northwest 10 to 15 mph.

* Wind chill values... 15 below to 25 below zero.

* Impacts... frostbite can occur in less than 30 minutes on
exposed skin.

Precautionary/preparedness actions...

A Wind Chill Advisory means that very cold air and winds will
combine to generate low wind chills. This will result in frost
bite and lead to hypothermia if precautions are not taken. If you
must venture outdoors... make sure you wear a hat and gloves.